Terminal Aerodrome Forecast
Issued by NWS

Home | Current Version | Previous Version | Text Only | Print | Product List | Glossary On
Versions: 1 2 3 4 5 6 7 8 9 10 11 12 13 14 15 16 17
000
FTUS46 KSEW 271200 AAA
TAFBLI
TAF AMD
KBLI 271228Z 2712/2812 17006KT P6SM FEW003 OVC040
     FM271800 19006KT P6SM SCT040 BKN100
     FM280000 18005KT P6SM BKN250=

USA.gov is the U.S. government's official web portal to all federal, state and local government web resources and services.